CMA CGM Castilla — V7LZ7 — position and weather

sailwx.info

Track history (hours):
 
Tides and Currents Weather Stations Pressure Air Temp Water Temp Dewpoint Dewpoint Depression Visibility Wind Speed Wind Dir Waves Ship Positions

CMA CGM Castilla

Last reported at 2015-Sep-01 01:19 UTC. Time now 2015-Sep-01 01:52 UTC.
Position N 41°19' E 002°11'.

Length 194 m; beam 28.2 m; draft 11.5 m.

Type: Ship. MMSI: 538090285.

Date/timePositionNaut miles runAvg speedWind from/ knotsBaromVisibWave heightAir tempDewpointWater temp
2015-Sep-01 01:19N 41°19' E 002°11'0 0.0
2015-Sep-01 00:31N 41°19' E 002°11'0 0.1
2015-Aug-31 23:07N 41°19' E 002°11'0 0.1
2015-Aug-31 22:25N 41°19' E 002°12'0 0.1
2015-Aug-31 20:31N 41°19' E 002°11'0 0.0
2015-Aug-31 18:31N 41°19' E 002°11'0 0.0
2015-Aug-31 17:31N 41°19' E 002°11'0 0.0
2015-Aug-31 16:31N 41°19' E 002°11'0 0.0
2015-Aug-30 17:25N 41°19' E 002°11'0 0.0
2015-Aug-30 15:19N 41°19' E 002°11'0 0.0
2015-Aug-30 14:19N 41°19' E 002°11'0 0.0
2015-Aug-30 13:31N 41°19' E 002°11'0 0.0
2015-Aug-30 12:19N 41°19' E 002°11'0 0.0
2015-Aug-30 05:13N 41°19' E 002°11'0 0.0
2015-Aug-30 03:25N 41°19' E 002°11'0 0.0
2015-Aug-30 02:25N 41°19' E 002°11'0 0.0
2015-Aug-30 01:28N 41°19' E 002°11'0 0.0
2015-Aug-30 00:07N 41°19' E 002°11'0 0.0
2015-Aug-29 23:25N 41°19' E 002°11'0 0.0
2015-Aug-29 20:31N 41°19' E 002°11'0 0.1
2015-Aug-29 19:31N 41°19' E 002°11'0 0.0
2015-Aug-29 18:25N 41°19' E 002°11'0 0.0
2015-Aug-29 17:31N 41°19' E 002°11'0 0.0
2015-Aug-29 15:31N 41°19' E 002°11'0 0.0
2015-Aug-29 14:07N 41°19' E 002°11'0 0.0
2015-Aug-29 13:07N 41°19' E 002°11'0 0.0
2015-Aug-29 10:31N 41°19' E 002°11'0 0.1
2015-Aug-29 09:25N 41°19' E 002°11'0 0.1
2015-Aug-29 08:25N 41°19' E 002°11'0 0.0
2015-Aug-29 07:31N 41°19' E 002°11'0 0.0
2015-Aug-29 06:07N 41°19' E 002°11'0 0.0
2015-Aug-29 04:25N 41°19' E 002°11'0 0.1
2015-Aug-29 03:22N 41°19' E 002°11'2 2.4
2015-Aug-29 02:33N 41°21' E 002°10'0 0.4
2015-Aug-29 01:33N 41°21' E 002°10'0 0.0
2015-Aug-29 00:33N 41°21' E 002°10'0 0.0
2015-Aug-28 22:33N 41°21' E 002°10'0 0.0
2015-Aug-28 21:21N 41°21' E 002°10'0 0.0
2015-Aug-28 20:21N 41°21' E 002°10'0 0.0
2015-Aug-28 19:27N 41°21' E 002°10'0 0.0
2015-Aug-28 18:21N 41°21' E 002°10'0 0.0
2015-Aug-28 16:33N 41°21' E 002°10'0 0.0
2015-Aug-28 13:33N 41°21' E 002°10'0 0.0
2015-Aug-28 12:15N 41°21' E 002°10'0 0.0
2015-Aug-28 11:33N 41°21' E 002°10'1 0.6
2015-Aug-28 10:33N 41°20' E 002°10'7 7.0
2015-Aug-28 09:31N 41°13' E 002°10'1414.1
2015-Aug-28 08:33N 41°03' E 001°57'1515.1
2015-Aug-28 07:33N 40°52' E 001°44'1515.0
2015-Aug-28 06:33N 40°40' E 001°32'1715.1
2015-Aug-28 05:27N 40°28' E 001°17'1415.2
2015-Aug-28 04:33N 40°19' E 001°04'1515.3
2015-Aug-28 03:33N 40°08' E 000°49'3115.4
2015-Aug-28 01:33N 39°49' E 000°18'2115.3
2015-Aug-28 00:10N 39°35' W 000°03'915.4
2015-Aug-27 23:33N 39°28' W 000°12'6 6.0
2015-Aug-27 22:33N 39°27' W 000°19'0 0.0
2015-Aug-27 21:33N 39°27' W 000°19'0 0.0
2015-Aug-27 20:33N 39°27' W 000°19'0 0.0
2015-Aug-27 19:33N 39°27' W 000°19'0 0.0
2015-Aug-27 18:33N 39°27' W 000°19'0 0.0
2015-Aug-27 17:33N 39°27' W 000°19'0 0.0
2015-Aug-27 16:33N 39°27' W 000°19'0 0.0
2015-Aug-27 15:33N 39°27' W 000°19'0 0.0
2015-Aug-27 14:33N 39°27' W 000°19'0 0.0
2015-Aug-27 13:33N 39°27' W 000°19'0 0.0
2015-Aug-27 12:33N 39°27' W 000°19'0 0.0
2015-Aug-27 11:33N 39°27' W 000°19'0 0.0
2015-Aug-27 10:33N 39°27' W 000°19'0 0.0
2015-Aug-27 09:33N 39°27' W 000°19'2 2.4
2015-Aug-27 08:33N 39°25' W 000°18'2 0.4
2015-Aug-27 03:27N 39°24' W 000°16'85 4.8
2015-Aug-26 09:33N 37°58' W 000°10'1010.1
2015-Aug-26 08:33N 37°50' W 000°17'1515.0
2015-Aug-26 07:33N 37°37' W 000°27'1515.3
2015-Aug-26 06:33N 37°26' W 000°40'1616.2
2015-Aug-26 05:33N 37°15' W 000°55'  
2015-Aug-22 21:29N 37°29' W 022°51'3215.2
2015-Aug-22 19:24N 37°31' W 023°31'1314.8
2015-Aug-22 18:33N 37°33' W 023°47'1515.0
2015-Aug-22 17:33N 37°34' W 024°05'1515.3
2015-Aug-22 16:34N 37°35' W 024°25'1514.8
2015-Aug-22 15:34N 37°37' W 024°43'1515.3
2015-Aug-22 14:34N 37°38' W 025°02'1615.5
2015-Aug-22 13:33N 37°39' W 025°22'1515.3
2015-Aug-22 12:33N 37°39' W 025°41'1615.6
2015-Aug-22 11:33N 37°40' W 026°01'1515.3
2015-Aug-22 10:33N 37°38' W 026°20'1615.6
2015-Aug-22 09:33N 37°38' W 026°40'1515.4
2015-Aug-22 08:33N 37°37' W 026°59'1515.5
2015-Aug-22 07:34N 37°36' W 027°19'1615.5
2015-Aug-22 06:31N 37°36' W 027°39'1415.1
2015-Aug-22 05:33N 37°35' W 027°58'1515.4
2015-Aug-22 04:33N 37°35' W 028°17'1515.3
2015-Aug-22 03:33N 37°34' W 028°36'1515.2
2015-Aug-22 02:33N 37°33' W 028°55'1515.3
2015-Aug-22 01:34N 37°32' W 029°15'  
Track history (hours):
 
Tides and Currents Weather Stations Pressure Air Temp Water Temp Dewpoint Dewpoint Depression Visibility Wind Speed Wind Dir Waves Ship Positions

CMA CGM Castilla

Last reported at 2015-Sep-01 01:19 UTC. Time now 2015-Sep-01 01:52 UTC.
Position N 41°19' E 002°11'.

Length 194 m; beam 28.2 m; draft 11.5 m.

Type: Ship. MMSI: 538090285.

Date/timePositionNaut miles runAvg speedWind from/ knotsBaromVisibWave heightAir tempDewpointWater temp
2015-Sep-01 01:19N 41°19' E 002°11'0 0.0
2015-Sep-01 00:31N 41°19' E 002°11'0 0.1
2015-Aug-31 23:07N 41°19' E 002°11'0 0.1
2015-Aug-31 22:25N 41°19' E 002°12'0 0.1
2015-Aug-31 20:31N 41°19' E 002°11'0 0.0
2015-Aug-31 18:31N 41°19' E 002°11'0 0.0
2015-Aug-31 17:31N 41°19' E 002°11'0 0.0
2015-Aug-31 16:31N 41°19' E 002°11'0 0.0
2015-Aug-30 17:25N 41°19' E 002°11'0 0.0
2015-Aug-30 15:19N 41°19' E 002°11'0 0.0
2015-Aug-30 14:19N 41°19' E 002°11'0 0.0
2015-Aug-30 13:31N 41°19' E 002°11'0 0.0
2015-Aug-30 12:19N 41°19' E 002°11'0 0.0
2015-Aug-30 05:13N 41°19' E 002°11'0 0.0
2015-Aug-30 03:25N 41°19' E 002°11'0 0.0
2015-Aug-30 02:25N 41°19' E 002°11'0 0.0
2015-Aug-30 01:28N 41°19' E 002°11'0 0.0
2015-Aug-30 00:07N 41°19' E 002°11'0 0.0
2015-Aug-29 23:25N 41°19' E 002°11'0 0.0
2015-Aug-29 20:31N 41°19' E 002°11'0 0.1
2015-Aug-29 19:31N 41°19' E 002°11'0 0.0
2015-Aug-29 18:25N 41°19' E 002°11'0 0.0
2015-Aug-29 17:31N 41°19' E 002°11'0 0.0
2015-Aug-29 15:31N 41°19' E 002°11'0 0.0
2015-Aug-29 14:07N 41°19' E 002°11'0 0.0
2015-Aug-29 13:07N 41°19' E 002°11'0 0.0
2015-Aug-29 10:31N 41°19' E 002°11'0 0.1
2015-Aug-29 09:25N 41°19' E 002°11'0 0.1
2015-Aug-29 08:25N 41°19' E 002°11'0 0.0
2015-Aug-29 07:31N 41°19' E 002°11'0 0.0
2015-Aug-29 06:07N 41°19' E 002°11'0 0.0
2015-Aug-29 04:25N 41°19' E 002°11'0 0.1
2015-Aug-29 03:22N 41°19' E 002°11'2 2.4
2015-Aug-29 02:33N 41°21' E 002°10'0 0.4
2015-Aug-29 01:33N 41°21' E 002°10'0 0.0
2015-Aug-29 00:33N 41°21' E 002°10'0 0.0
2015-Aug-28 22:33N 41°21' E 002°10'0 0.0
2015-Aug-28 21:21N 41°21' E 002°10'0 0.0
2015-Aug-28 20:21N 41°21' E 002°10'0 0.0
2015-Aug-28 19:27N 41°21' E 002°10'0 0.0
2015-Aug-28 18:21N 41°21' E 002°10'0 0.0
2015-Aug-28 16:33N 41°21' E 002°10'0 0.0
2015-Aug-28 13:33N 41°21' E 002°10'0 0.0
2015-Aug-28 12:15N 41°21' E 002°10'0 0.0
2015-Aug-28 11:33N 41°21' E 002°10'1 0.6
2015-Aug-28 10:33N 41°20' E 002°10'7 7.0
2015-Aug-28 09:31N 41°13' E 002°10'1414.1
2015-Aug-28 08:33N 41°03' E 001°57'1515.1
2015-Aug-28 07:33N 40°52' E 001°44'1515.0
2015-Aug-28 06:33N 40°40' E 001°32'1715.1
2015-Aug-28 05:27N 40°28' E 001°17'1415.2
2015-Aug-28 04:33N 40°19' E 001°04'1515.3
2015-Aug-28 03:33N 40°08' E 000°49'3115.4
2015-Aug-28 01:33N 39°49' E 000°18'2115.3
2015-Aug-28 00:10N 39°35' W 000°03'915.4
2015-Aug-27 23:33N 39°28' W 000°12'6 6.0
2015-Aug-27 22:33N 39°27' W 000°19'0 0.0
2015-Aug-27 21:33N 39°27' W 000°19'0 0.0
2015-Aug-27 20:33N 39°27' W 000°19'0 0.0
2015-Aug-27 19:33N 39°27' W 000°19'0 0.0
2015-Aug-27 18:33N 39°27' W 000°19'0 0.0
2015-Aug-27 17:33N 39°27' W 000°19'0 0.0
2015-Aug-27 16:33N 39°27' W 000°19'0 0.0
2015-Aug-27 15:33N 39°27' W 000°19'0 0.0
2015-Aug-27 14:33N 39°27' W 000°19'0 0.0
2015-Aug-27 13:33N 39°27' W 000°19'0 0.0
2015-Aug-27 12:33N 39°27' W 000°19'0 0.0
2015-Aug-27 11:33N 39°27' W 000°19'0 0.0
2015-Aug-27 10:33N 39°27' W 000°19'0 0.0
2015-Aug-27 09:33N 39°27' W 000°19'2 2.4
2015-Aug-27 08:33N 39°25' W 000°18'2 0.4
2015-Aug-27 03:27N 39°24' W 000°16'85 4.8
2015-Aug-26 09:33N 37°58' W 000°10'1010.1
2015-Aug-26 08:33N 37°50' W 000°17'1515.0
2015-Aug-26 07:33N 37°37' W 000°27'1515.3
2015-Aug-26 06:33N 37°26' W 000°40'1616.2
2015-Aug-26 05:33N 37°15' W 000°55'  
2015-Aug-22 21:29N 37°29' W 022°51'3215.2
2015-Aug-22 19:24N 37°31' W 023°31'1314.8
2015-Aug-22 18:33N 37°33' W 023°47'1515.0
2015-Aug-22 17:33N 37°34' W 024°05'1515.3
2015-Aug-22 16:34N 37°35' W 024°25'1514.8
2015-Aug-22 15:34N 37°37' W 024°43'1515.3
2015-Aug-22 14:34N 37°38' W 025°02'1615.5
2015-Aug-22 13:33N 37°39' W 025°22'1515.3
2015-Aug-22 12:33N 37°39' W 025°41'1615.6
2015-Aug-22 11:33N 37°40' W 026°01'1515.3
2015-Aug-22 10:33N 37°38' W 026°20'1615.6
2015-Aug-22 09:33N 37°38' W 026°40'1515.4
2015-Aug-22 08:33N 37°37' W 026°59'1515.5
2015-Aug-22 07:34N 37°36' W 027°19'1615.5
2015-Aug-22 06:31N 37°36' W 027°39'1415.1
2015-Aug-22 05:33N 37°35' W 027°58'1515.4
2015-Aug-22 04:33N 37°35' W 028°17'1515.3
2015-Aug-22 03:33N 37°34' W 028°36'1515.2
2015-Aug-22 02:33N 37°33' W 028°55'1515.3
2015-Aug-22 01:34N 37°32' W 029°15'  

Dump ship's entire track history